Aviation Digital Data Service (ADDS)

Output produced by METARs form (0018 UTC 17 July 2019)
found at http://www.aviationweather.gov/metar/data/
 
DGAA 170000Z 24010KT 9999 FEW010 25/24 Q1015 NOSIG
TAF DGAA 162300Z 1700/1806 26010KT 9999 BKN020 
     TEMPO 1702/1705 7000 -RA BKN010 
     PROB30 1706/1708 5000 BR 
     BECMG 1710/1712 19015KT 9999 SCT020